createdAt,value
2023-01-12T00:02:19.519Z,82.10
2023-01-12T00:07:28.863Z,82.25
2023-01-12T00:12:36.002Z,82.16
2023-01-12T00:17:43.182Z,82.30
2023-01-12T00:22:52.038Z,82.28
2023-01-12T00:27:59.168Z,82.08
2023-01-12T00:33:06.330Z,82.27
2023-01-12T00:38:13.580Z,82.32
2023-01-12T00:43:38.409Z,82.39
2023-01-12T00:48:45.545Z,82.40
2023-01-12T00:53:52.803Z,82.38
2023-01-12T00:59:00.061Z,82.42
2023-01-12T01:04:07.556Z,82.51
2023-01-12T01:09:14.876Z,82.54
2023-01-12T01:14:22.014Z,82.46
2023-01-12T01:19:29.265Z,82.59
2023-01-12T01:24:36.539Z,82.72
2023-01-12T01:29:43.727Z,82.65
2023-01-12T01:34:50.844Z,82.63
2023-01-12T01:39:58.036Z,82.80
2023-01-12T01:45:12.466Z,82.80
2023-01-12T01:50:25.481Z,82.79
2023-01-12T01:55:35.992Z,82.87
2023-01-12T02:00:45.382Z,82.92
2023-01-12T02:05:53.643Z,82.79
2023-01-12T02:11:02.779Z,82.88
2023-01-12T02:16:23.288Z,82.91
2023-01-12T02:22:03.375Z,82.86
2023-01-12T02:27:30.078Z,82.84
2023-01-12T02:32:45.007Z,82.88
2023-01-12T02:38:00.056Z,83.00
2023-01-12T02:43:14.411Z,83.00
2023-01-12T02:48:27.886Z,83.03
2023-01-12T02:53:43.359Z,83.00
2023-01-12T02:58:54.986Z,83.04
2023-01-12T03:04:06.018Z,83.08
2023-01-12T03:09:13.718Z,83.14
2023-01-12T03:14:22.628Z,83.20
2023-01-12T03:19:33.749Z,83.11
2023-01-12T03:24:45.620Z,83.13
2023-01-12T03:29:59.190Z,83.31
2023-01-12T03:35:08.937Z,83.29
2023-01-12T03:40:22.977Z,83.13
2023-01-12T03:45:35.605Z,83.23
2023-01-12T03:50:46.887Z,83.22
2023-01-12T03:55:57.671Z,83.39
2023-01-12T04:01:06.241Z,83.39
2023-01-12T04:06:13.492Z,83.34
2023-01-12T04:11:38.167Z,83.24
2023-01-12T04:16:47.029Z,83.22
2023-01-12T04:22:12.111Z,83.36
2023-01-12T04:27:19.856Z,83.42
2023-01-12T04:32:27.164Z,83.37
2023-01-12T04:37:35.878Z,83.16
2023-01-12T04:43:07.308Z,83.33
2023-01-12T04:48:16.507Z,83.46
2023-01-12T04:53:24.929Z,83.33
2023-01-12T04:58:32.480Z,83.28
2023-01-12T05:03:39.966Z,83.32
2023-01-12T05:09:04.985Z,83.42
2023-01-12T05:14:12.043Z,83.33
2023-01-12T05:19:19.158Z,83.37
2023-01-12T05:24:26.258Z,83.41
2023-01-12T05:29:33.342Z,83.35
2023-01-12T05:34:41.922Z,83.28
2023-01-12T05:39:49.135Z,83.24
2023-01-12T05:44:56.342Z,83.32
2023-01-12T05:50:03.439Z,83.23
2023-01-12T05:55:11.935Z,83.36
2023-01-12T06:00:20.768Z,83.30
2023-01-12T06:05:28.014Z,83.27
2023-01-12T06:10:37.114Z,83.30
2023-01-12T06:15:46.602Z,83.32
2023-01-12T06:20:53.771Z,83.26
2023-01-12T06:26:03.259Z,83.43
2023-01-12T06:31:12.916Z,83.29
2023-01-12T06:36:20.457Z,83.30
2023-01-12T06:41:45.012Z,83.24
2023-01-12T06:46:52.211Z,83.25
2023-01-12T06:51:59.389Z,83.45
2023-01-12T06:57:06.706Z,83.39
2023-01-12T07:02:16.639Z,83.33
2023-01-12T07:07:24.164Z,83.32
2023-01-12T07:12:31.353Z,83.39
2023-01-12T07:17:38.563Z,83.38
2023-01-12T07:22:45.680Z,83.47
2023-01-12T07:27:53.840Z,83.46
2023-01-12T07:33:08.926Z,83.58
2023-01-12T07:38:16.334Z,83.52
2023-01-12T07:43:23.535Z,83.38
2023-01-12T07:48:30.921Z,83.30
2023-01-12T07:53:41.099Z,83.09
2023-01-12T07:58:48.032Z,83.07
2023-01-12T08:03:55.600Z,82.94
2023-01-12T08:09:02.830Z,82.44
2023-01-12T08:14:10.078Z,82.30
2023-01-12T08:19:20.978Z,82.32
2023-01-12T08:24:32.306Z,82.49
2023-01-12T08:29:44.682Z,82.58
2023-01-12T08:34:55.141Z,82.72
2023-01-12T08:40:02.618Z,82.72
2023-01-12T08:45:11.902Z,82.81
2023-01-12T08:50:19.370Z,82.80
2023-01-12T08:55:26.552Z,82.75
2023-01-12T09:00:33.730Z,82.64
2023-01-12T09:05:41.705Z,82.70
2023-01-12T09:10:48.902Z,82.86
2023-01-12T09:16:11.172Z,82.79
2023-01-12T09:21:24.713Z,82.69
2023-01-12T09:26:38.227Z,82.81
2023-01-12T09:31:47.642Z,82.58
2023-01-12T09:36:56.780Z,81.90
2023-01-12T09:42:24.074Z,81.89
2023-01-12T09:47:36.858Z,81.79
2023-01-12T09:52:49.055Z,81.83
2023-01-12T09:58:17.410Z,81.97
2023-01-12T10:03:31.460Z,81.91
2023-01-12T10:08:41.499Z,82.04
2023-01-12T10:14:09.727Z,82.35
2023-01-12T10:19:24.937Z,82.07
2023-01-12T10:24:33.065Z,81.86
2023-01-12T10:29:40.547Z,81.45
2023-01-12T10:34:54.657Z,81.76
2023-01-12T10:40:01.783Z,81.62
2023-01-12T10:45:21.492Z,81.17
2023-01-12T10:50:31.607Z,80.72
2023-01-12T10:55:42.693Z,80.80
2023-01-12T11:00:54.176Z,80.05
2023-01-12T11:06:23.961Z,79.18
2023-01-12T11:11:34.527Z,78.82
2023-01-12T11:16:49.275Z,79.44
2023-01-12T11:22:03.119Z,79.93
2023-01-12T11:27:19.024Z,78.83
2023-01-12T11:32:35.067Z,78.60
2023-01-12T11:37:43.581Z,78.93
2023-01-12T11:43:10.408Z,78.17
2023-01-12T11:48:24.424Z,78.30
2023-01-12T11:53:31.672Z,78.36
2023-01-12T11:58:49.732Z,78.64
2023-01-12T12:04:01.836Z,78.79
2023-01-12T12:09:23.424Z,78.55
2023-01-12T12:14:47.902Z,78.57
2023-01-12T12:20:04.900Z,78.53
2023-01-12T12:25:29.345Z,78.46
2023-01-12T12:31:06.969Z,78.37
2023-01-12T12:36:24.561Z,78.28
2023-01-12T12:41:57.318Z,78.30
2023-01-12T12:47:25.437Z,78.30
2023-01-12T12:52:35.170Z,78.17
2023-01-12T12:58:06.045Z,78.17
2023-01-12T13:03:33.270Z,78.03
2023-01-12T13:08:41.915Z,78.19
2023-01-12T13:14:03.124Z,78.16
2023-01-12T13:19:16.934Z,77.93
2023-01-12T13:24:43.391Z,77.80
2023-01-12T13:29:50.756Z,77.85
2023-01-12T13:34:58.204Z,77.73
2023-01-12T13:40:19.066Z,77.62
2023-01-12T13:45:26.571Z,77.79
2023-01-12T13:50:36.402Z,77.75
2023-01-12T13:55:56.406Z,77.76
2023-01-12T14:01:04.478Z,77.59
2023-01-12T14:06:23.910Z,77.72
2023-01-12T14:11:49.697Z,77.73
2023-01-12T14:17:16.770Z,77.45
2023-01-12T14:22:24.940Z,77.32
2023-01-12T14:27:32.208Z,77.27
2023-01-12T14:32:42.979Z,77.33
2023-01-12T14:37:53.986Z,77.40
2023-01-12T14:43:20.189Z,77.28
2023-01-12T14:48:29.526Z,77.37
2023-01-12T14:53:40.456Z,77.36
2023-01-12T14:58:49.624Z,77.36
2023-01-12T15:03:56.975Z,77.38
2023-01-12T15:09:05.099Z,77.39
2023-01-12T15:14:25.173Z,77.26
2023-01-12T15:20:02.128Z,77.24
2023-01-12T15:25:33.233Z,77.07
2023-01-12T15:30:42.713Z,77.22
2023-01-12T15:36:25.870Z,77.17
2023-01-12T15:42:18.603Z,77.10
2023-01-12T15:47:25.857Z,77.13
2023-01-12T15:52:34.371Z,77.14
2023-01-12T15:57:41.661Z,77.11
2023-01-12T16:02:49.946Z,77.15
2023-01-12T16:07:57.411Z,77.07
2023-01-12T16:13:09.593Z,77.05
2023-01-12T16:18:16.893Z,77.07
2023-01-12T16:23:24.343Z,77.00
2023-01-12T16:28:32.503Z,77.04
2023-01-12T16:33:40.383Z,77.07
2023-01-12T16:38:47.772Z,77.02
2023-01-12T16:43:55.955Z,76.98
2023-01-12T16:49:05.273Z,77.05
2023-01-12T16:54:12.413Z,76.95
2023-01-12T16:59:19.794Z,76.94
2023-01-12T17:04:27.219Z,76.94
2023-01-12T17:09:35.075Z,76.90
2023-01-12T17:14:42.343Z,77.00
2023-01-12T17:19:49.674Z,76.98
2023-01-12T17:24:59.677Z,76.84
2023-01-12T17:30:08.272Z,76.90
2023-01-12T17:35:15.912Z,76.84
2023-01-12T17:40:23.519Z,76.77
2023-01-12T17:45:31.036Z,76.80
2023-01-12T17:50:40.168Z,76.73
2023-01-12T17:55:51.559Z,76.70
2023-01-12T18:01:03.187Z,76.75
2023-01-12T18:06:25.913Z,76.85
2023-01-12T18:11:36.401Z,76.73
2023-01-12T18:16:44.813Z,76.72
2023-01-12T18:21:53.392Z,76.75
2023-01-12T18:27:03.279Z,76.74
2023-01-12T18:32:11.015Z,76.69
2023-01-12T18:37:18.325Z,76.80
2023-01-12T18:42:57.715Z,76.72
2023-01-12T18:48:32.056Z,76.66
2023-01-12T18:53:41.937Z,76.75
2023-01-12T18:58:50.367Z,76.86
2023-01-12T19:03:57.706Z,76.82
2023-01-12T19:09:22.644Z,76.80
2023-01-12T19:14:48.800Z,76.71
2023-01-12T19:19:56.856Z,76.68
2023-01-12T19:25:22.670Z,76.65
2023-01-12T19:30:30.092Z,76.73
2023-01-12T19:35:41.076Z,76.76
2023-01-12T19:40:53.820Z,76.63
2023-01-12T19:46:03.861Z,76.67
2023-01-12T19:51:12.292Z,76.75
2023-01-12T19:56:19.527Z,76.66
2023-01-12T20:01:28.635Z,76.61
2023-01-12T20:06:36.940Z,76.71
2023-01-12T20:11:44.432Z,76.71
2023-01-12T20:16:51.903Z,76.79
2023-01-12T20:22:04.602Z,76.81
2023-01-12T20:27:12.411Z,76.70
2023-01-12T20:32:19.647Z,76.74
2023-01-12T20:37:27.098Z,76.72
2023-01-12T20:42:34.518Z,76.71
2023-01-12T20:47:42.430Z,76.84
2023-01-12T20:52:51.122Z,76.74
2023-01-12T20:57:58.797Z,76.73
2023-01-12T21:03:07.561Z,76.72
2023-01-12T21:08:16.450Z,76.73
2023-01-12T21:13:24.182Z,76.85
2023-01-12T21:18:35.608Z,76.85
2023-01-12T21:24:55.413Z,76.83
2023-01-12T21:30:12.521Z,76.87
2023-01-12T21:35:21.159Z,76.84
2023-01-12T21:40:29.052Z,76.77
2023-01-12T21:45:37.498Z,76.95
2023-01-12T21:50:45.677Z,77.03
2023-01-12T21:55:58.425Z,76.90
2023-01-12T22:01:14.141Z,76.80
2023-01-12T22:06:21.653Z,76.91
2023-01-12T22:11:29.261Z,76.86
2023-01-12T22:16:37.539Z,76.96
2023-01-12T22:21:44.758Z,76.79
2023-01-12T22:26:52.296Z,76.88
2023-01-12T22:31:59.701Z,76.90
2023-01-12T22:37:07.062Z,76.92
2023-01-12T22:42:14.222Z,76.93
2023-01-12T22:47:21.283Z,76.99
2023-01-12T22:52:29.406Z,77.00
2023-01-12T22:57:34.924Z,76.97
2023-01-12T23:03:11.402Z,77.07
2023-01-12T23:08:21.480Z,77.21
2023-01-12T23:13:28.722Z,77.17
2023-01-12T23:18:38.413Z,77.28
2023-01-12T23:23:47.047Z,77.37
2023-01-12T23:28:56.404Z,77.39
2023-01-12T23:34:03.732Z,77.53
2023-01-12T23:39:12.435Z,77.53
2023-01-12T23:44:19.946Z,77.62
2023-01-12T23:49:28.911Z,77.75
2023-01-12T23:54:36.959Z,77.75
2023-01-12T23:59:42.605Z,77.90
